<?xml version="1.0" encoding="UTF-8" standalone="no" ?>
<gpx xmlns="http://www.topografix.com/GPX/1/1" xmlns:xsi="http://www.w3.org/2001/XMLSchema-instance" xsi:schemaLocation="http://www.topografix.com/GPX/1/1 http://www.topografix.com/GPX/1/1/gpx.xsd" version="1.1" creator="VisuGPX - https://www.visugpx.com">
  <metadata>
    <name>GR8S3_LesSableStMichelHerm</name>
    <desc><![CDATA[gnerando idor: 12420312_12420320_12420354_12420365]]></desc>
  </metadata>
  <trk>
    <name><![CDATA[GR8S3J2_TalmontLesConches_21.4km-12420320]]></name>
    <extensions>
      <line xmlns="http://www.topografix.com/GPX/gpx_style/0/2">
        <color>0000FF</color>
        <width>4</width>
      </line>
    </extensions>
    <trkseg>
      <trkpt lat="46.46331" lon="-1.63572">
        <ele>27</ele>
        <time>2023-10-30T14:39:09Z</time>
      </trkpt>
      <trkpt lat="46.4639" lon="-1.63448">
        <ele>28</ele>
        <time>2023-10-30T14:41:28Z</time>
      </trkpt>
      <trkpt lat="46.46479" lon="-1.63317">
        <ele>27</ele>
        <time>2023-10-30T14:44:17Z</time>
      </trkpt>
      <trkpt lat="46.46521" lon="-1.63238">
        <ele>26</ele>
        <time>2023-10-30T14:45:48Z</time>
      </trkpt>
      <trkpt lat="46.46537" lon="-1.63146">
        <ele>24</ele>
        <time>2023-10-30T14:47:16Z</time>
      </trkpt>
      <trkpt lat="46.46528" lon="-1.62957">
        <ele>23</ele>
        <time>2023-10-30T14:50:10Z</time>
      </trkpt>
      <trkpt lat="46.46555" lon="-1.62841">
        <ele>24</ele>
        <time>2023-10-30T14:52:02Z</time>
      </trkpt>
      <trkpt lat="46.4654" lon="-1.62796">
        <ele>23</ele>
        <time>2023-10-30T14:52:48Z</time>
      </trkpt>
      <trkpt lat="46.46494" lon="-1.62753">
        <ele>19</ele>
        <time>2023-10-30T14:54:01Z</time>
      </trkpt>
      <trkpt lat="46.46464" lon="-1.62691">
        <ele>17</ele>
        <time>2023-10-30T14:55:11Z</time>
      </trkpt>
      <trkpt lat="46.46466" lon="-1.62603">
        <ele>16</ele>
        <time>2023-10-30T14:56:32Z</time>
      </trkpt>
      <trkpt lat="46.4649" lon="-1.62465">
        <ele>14</ele>
        <time>2023-10-30T14:58:43Z</time>
      </trkpt>
      <trkpt lat="46.4649" lon="-1.62386">
        <ele>13</ele>
        <time>2023-10-30T14:59:55Z</time>
      </trkpt>
      <trkpt lat="46.4645" lon="-1.62195">
        <ele>9</ele>
        <time>2023-10-30T15:02:59Z</time>
      </trkpt>
      <trkpt lat="46.46451" lon="-1.62113">
        <ele>9</ele>
        <time>2023-10-30T15:04:14Z</time>
      </trkpt>
      <trkpt lat="46.46435" lon="-1.6203">
        <ele>7</ele>
        <time>2023-10-30T15:05:33Z</time>
      </trkpt>
      <trkpt lat="46.46411" lon="-1.6203">
        <ele>6</ele>
        <time>2023-10-30T15:06:05Z</time>
      </trkpt>
      <trkpt lat="46.46398" lon="-1.6188">
        <ele>4</ele>
        <time>2023-10-30T15:08:24Z</time>
      </trkpt>
      <trkpt lat="46.46399" lon="-1.61768">
        <ele>4</ele>
        <time>2023-10-30T15:10:07Z</time>
      </trkpt>
      <trkpt lat="46.46388" lon="-1.61672">
        <ele>7</ele>
        <time>2023-10-30T15:11:37Z</time>
      </trkpt>
      <trkpt lat="46.46351" lon="-1.61646">
        <ele>8</ele>
        <time>2023-10-30T15:12:32Z</time>
      </trkpt>
      <trkpt lat="46.46314" lon="-1.61648">
        <ele>10</ele>
        <time>2023-10-30T15:13:21Z</time>
      </trkpt>
      <trkpt lat="46.46278" lon="-1.61674">
        <ele>12</ele>
        <time>2023-10-30T15:14:15Z</time>
      </trkpt>
      <trkpt lat="46.46228" lon="-1.61697">
        <ele>17</ele>
        <time>2023-10-30T15:15:25Z</time>
      </trkpt>
      <trkpt lat="46.46076" lon="-1.61635">
        <ele>27</ele>
        <time>2023-10-30T15:18:55Z</time>
      </trkpt>
      <trkpt lat="46.46098" lon="-1.61539">
        <ele>28</ele>
        <time>2023-10-30T15:20:28Z</time>
      </trkpt>
      <trkpt lat="46.46064" lon="-1.61543">
        <ele>28</ele>
        <time>2023-10-30T15:21:14Z</time>
      </trkpt>
      <trkpt lat="46.45702" lon="-1.6177">
        <ele>22</ele>
        <time>2023-10-30T15:30:00Z</time>
      </trkpt>
      <trkpt lat="46.45663" lon="-1.6153">
        <ele>21</ele>
        <time>2023-10-30T15:33:47Z</time>
      </trkpt>
      <trkpt lat="46.45555" lon="-1.61575">
        <ele>16</ele>
        <time>2023-10-30T15:36:17Z</time>
      </trkpt>
      <trkpt lat="46.45323" lon="-1.61558">
        <ele>8</ele>
        <time>2023-10-30T15:41:27Z</time>
      </trkpt>
      <trkpt lat="46.45028" lon="-1.61481">
        <ele>3</ele>
        <time>2023-10-30T15:48:07Z</time>
      </trkpt>
      <trkpt lat="46.44998" lon="-1.61429">
        <ele>4</ele>
        <time>2023-10-30T15:49:09Z</time>
      </trkpt>
      <trkpt lat="46.44362" lon="-1.61431">
        <ele>6</ele>
        <time>2023-10-30T16:03:18Z</time>
      </trkpt>
      <trkpt lat="46.44164" lon="-1.61513">
        <ele>3</ele>
        <time>2023-10-30T16:07:53Z</time>
      </trkpt>
      <trkpt lat="46.44112" lon="-1.61341">
        <ele>3</ele>
        <time>2023-10-30T16:10:45Z</time>
      </trkpt>
      <trkpt lat="46.44129" lon="-1.61247">
        <ele>2</ele>
        <time>2023-10-30T16:12:15Z</time>
      </trkpt>
      <trkpt lat="46.44186" lon="-1.61191">
        <ele>2</ele>
        <time>2023-10-30T16:13:47Z</time>
      </trkpt>
      <trkpt lat="46.44194" lon="-1.61129">
        <ele>2</ele>
        <time>2023-10-30T16:14:45Z</time>
      </trkpt>
      <trkpt lat="46.4416" lon="-1.60897">
        <ele>5</ele>
        <time>2023-10-30T16:18:23Z</time>
      </trkpt>
      <trkpt lat="46.44192" lon="-1.60663">
        <ele>2</ele>
        <time>2023-10-30T16:22:02Z</time>
      </trkpt>
      <trkpt lat="46.44143" lon="-1.605">
        <ele>3</ele>
        <time>2023-10-30T16:24:46Z</time>
      </trkpt>
      <trkpt lat="46.44105" lon="-1.60442">
        <ele>3</ele>
        <time>2023-10-30T16:25:59Z</time>
      </trkpt>
      <trkpt lat="46.44095" lon="-1.60367">
        <ele>3</ele>
        <time>2023-10-30T16:27:09Z</time>
      </trkpt>
      <trkpt lat="46.44101" lon="-1.60238">
        <ele>3</ele>
        <time>2023-10-30T16:29:08Z</time>
      </trkpt>
      <trkpt lat="46.44078" lon="-1.60208">
        <ele>2</ele>
        <time>2023-10-30T16:29:50Z</time>
      </trkpt>
      <trkpt lat="46.43908" lon="-1.60208">
        <ele>2</ele>
        <time>2023-10-30T16:33:36Z</time>
      </trkpt>
      <trkpt lat="46.43797" lon="-1.60352">
        <ele>2</ele>
        <time>2023-10-30T16:36:55Z</time>
      </trkpt>
      <trkpt lat="46.43743" lon="-1.60393">
        <ele>2</ele>
        <time>2023-10-30T16:38:16Z</time>
      </trkpt>
      <trkpt lat="46.43718" lon="-1.60371">
        <ele>2</ele>
        <time>2023-10-30T16:38:55Z</time>
      </trkpt>
      <trkpt lat="46.43719" lon="-1.6029">
        <ele>3</ele>
        <time>2023-10-30T16:40:10Z</time>
      </trkpt>
      <trkpt lat="46.43556" lon="-1.60305">
        <ele>1</ele>
        <time>2023-10-30T16:43:48Z</time>
      </trkpt>
      <trkpt lat="46.4354" lon="-1.60251">
        <ele>1</ele>
        <time>2023-10-30T16:44:42Z</time>
      </trkpt>
      <trkpt lat="46.43487" lon="-1.60172">
        <ele>2</ele>
        <time>2023-10-30T16:46:23Z</time>
      </trkpt>
      <trkpt lat="46.43454" lon="-1.60152">
        <ele>2</ele>
        <time>2023-10-30T16:47:11Z</time>
      </trkpt>
      <trkpt lat="46.43443" lon="-1.60026">
        <ele>1</ele>
        <time>2023-10-30T16:49:08Z</time>
      </trkpt>
      <trkpt lat="46.43406" lon="-1.59931">
        <ele>2</ele>
        <time>2023-10-30T16:50:48Z</time>
      </trkpt>
      <trkpt lat="46.43394" lon="-1.59843">
        <ele>2</ele>
        <time>2023-10-30T16:52:11Z</time>
      </trkpt>
      <trkpt lat="46.43366" lon="-1.59762">
        <ele>1</ele>
        <time>2023-10-30T16:53:34Z</time>
      </trkpt>
      <trkpt lat="46.43355" lon="-1.59693">
        <ele>2.3</ele>
        <time>2023-10-30T16:54:39Z</time>
      </trkpt>
      <trkpt lat="46.43278" lon="-1.59547">
        <ele>3</ele>
        <time>2023-10-30T16:57:28Z</time>
      </trkpt>
      <trkpt lat="46.43242" lon="-1.59506">
        <ele>2.9</ele>
        <time>2023-10-30T16:58:29Z</time>
      </trkpt>
      <trkpt lat="46.43235" lon="-1.59559">
        <ele>2.5</ele>
        <time>2023-10-30T16:59:19Z</time>
      </trkpt>
      <trkpt lat="46.42925" lon="-1.59622">
        <ele>1</ele>
        <time>2023-10-30T17:06:17Z</time>
      </trkpt>
      <trkpt lat="46.42907" lon="-1.59662">
        <ele>1</ele>
        <time>2023-10-30T17:07:01Z</time>
      </trkpt>
      <trkpt lat="46.42902" lon="-1.59733">
        <ele>2</ele>
        <time>2023-10-30T17:08:06Z</time>
      </trkpt>
      <trkpt lat="46.42781" lon="-1.598">
        <ele>1</ele>
        <time>2023-10-30T17:10:59Z</time>
      </trkpt>
      <trkpt lat="46.42734" lon="-1.59811">
        <ele>1</ele>
        <time>2023-10-30T17:12:03Z</time>
      </trkpt>
      <trkpt lat="46.4243" lon="-1.59943">
        <ele>1</ele>
        <time>2023-10-30T17:19:06Z</time>
      </trkpt>
      <trkpt lat="46.42346" lon="-1.59997">
        <ele>2</ele>
        <time>2023-10-30T17:21:09Z</time>
      </trkpt>
      <trkpt lat="46.42226" lon="-1.60225">
        <ele>5</ele>
        <time>2023-10-30T17:25:33Z</time>
      </trkpt>
      <trkpt lat="46.42191" lon="-1.60269">
        <ele>6</ele>
        <time>2023-10-30T17:26:34Z</time>
      </trkpt>
      <trkpt lat="46.42121" lon="-1.60441">
        <ele>13</ele>
        <time>2023-10-30T17:29:38Z</time>
      </trkpt>
      <trkpt lat="46.42101" lon="-1.60349">
        <ele>15</ele>
        <time>2023-10-30T17:31:07Z</time>
      </trkpt>
      <trkpt lat="46.41998" lon="-1.60417">
        <ele>22</ele>
        <time>2023-10-30T17:33:38Z</time>
      </trkpt>
      <trkpt lat="46.41979" lon="-1.60467">
        <ele>23</ele>
        <time>2023-10-30T17:34:30Z</time>
      </trkpt>
      <trkpt lat="46.41902" lon="-1.6049">
        <ele>23</ele>
        <time>2023-10-30T17:36:15Z</time>
      </trkpt>
      <trkpt lat="46.41797" lon="-1.60558">
        <ele>23</ele>
        <time>2023-10-30T17:38:49Z</time>
      </trkpt>
      <trkpt lat="46.4171" lon="-1.60582">
        <ele>24</ele>
        <time>2023-10-30T17:40:47Z</time>
      </trkpt>
      <trkpt lat="46.41667" lon="-1.60701">
        <ele>23</ele>
        <time>2023-10-30T17:42:51Z</time>
      </trkpt>
      <trkpt lat="46.41638" lon="-1.60753">
        <ele>22</ele>
        <time>2023-10-30T17:43:52Z</time>
      </trkpt>
      <trkpt lat="46.41635" lon="-1.60784">
        <ele>21</ele>
        <time>2023-10-30T17:44:21Z</time>
      </trkpt>
      <trkpt lat="46.41564" lon="-1.60842">
        <ele>19</ele>
        <time>2023-10-30T17:46:10Z</time>
      </trkpt>
      <trkpt lat="46.41352" lon="-1.61162">
        <ele>7</ele>
        <time>2023-10-30T17:52:58Z</time>
      </trkpt>
      <trkpt lat="46.41257" lon="-1.60628">
        <ele>5</ele>
        <time>2023-10-30T18:01:25Z</time>
      </trkpt>
      <trkpt lat="46.41263" lon="-1.60452">
        <ele>5</ele>
        <time>2023-10-30T18:04:08Z</time>
      </trkpt>
      <trkpt lat="46.41212" lon="-1.60205">
        <ele>6</ele>
        <time>2023-10-30T18:08:05Z</time>
      </trkpt>
      <trkpt lat="46.4121" lon="-1.60057">
        <ele>7</ele>
        <time>2023-10-30T18:10:21Z</time>
      </trkpt>
      <trkpt lat="46.41155" lon="-1.59804">
        <ele>8</ele>
        <time>2023-10-30T18:14:25Z</time>
      </trkpt>
      <trkpt lat="46.41161" lon="-1.59675">
        <ele>10</ele>
        <time>2023-10-30T18:16:24Z</time>
      </trkpt>
      <trkpt lat="46.41077" lon="-1.59351">
        <ele>10</ele>
        <time>2023-10-30T18:21:42Z</time>
      </trkpt>
      <trkpt lat="46.41098" lon="-1.59239">
        <ele>11</ele>
        <time>2023-10-30T18:23:29Z</time>
      </trkpt>
      <trkpt lat="46.4109" lon="-1.59146">
        <ele>12</ele>
        <time>2023-10-30T18:24:55Z</time>
      </trkpt>
      <trkpt lat="46.41105" lon="-1.59034">
        <ele>12</ele>
        <time>2023-10-30T18:26:40Z</time>
      </trkpt>
      <trkpt lat="46.41132" lon="-1.58959">
        <ele>12</ele>
        <time>2023-10-30T18:27:58Z</time>
      </trkpt>
      <trkpt lat="46.41146" lon="-1.58759">
        <ele>12</ele>
        <time>2023-10-30T18:31:03Z</time>
      </trkpt>
      <trkpt lat="46.41124" lon="-1.58578">
        <ele>12</ele>
        <time>2023-10-30T18:33:52Z</time>
      </trkpt>
      <trkpt lat="46.41084" lon="-1.58677">
        <ele>11</ele>
        <time>2023-10-30T18:35:38Z</time>
      </trkpt>
      <trkpt lat="46.41021" lon="-1.58671">
        <ele>10</ele>
        <time>2023-10-30T18:37:02Z</time>
      </trkpt>
      <trkpt lat="46.41009" lon="-1.58621">
        <ele>9</ele>
        <time>2023-10-30T18:37:51Z</time>
      </trkpt>
      <trkpt lat="46.41022" lon="-1.58555">
        <ele>8</ele>
        <time>2023-10-30T18:38:54Z</time>
      </trkpt>
      <trkpt lat="46.4099" lon="-1.5843">
        <ele>6</ele>
        <time>2023-10-30T18:40:57Z</time>
      </trkpt>
      <trkpt lat="46.40998" lon="-1.58237">
        <ele>9</ele>
        <time>2023-10-30T18:43:55Z</time>
      </trkpt>
      <trkpt lat="46.40964" lon="-1.5813">
        <ele>6</ele>
        <time>2023-10-30T18:45:43Z</time>
      </trkpt>
      <trkpt lat="46.40971" lon="-1.58016">
        <ele>8</ele>
        <time>2023-10-30T18:47:28Z</time>
      </trkpt>
      <trkpt lat="46.40948" lon="-1.57903">
        <ele>7</ele>
        <time>2023-10-30T18:49:17Z</time>
      </trkpt>
      <trkpt lat="46.40957" lon="-1.57787">
        <ele>7</ele>
        <time>2023-10-30T18:51:04Z</time>
      </trkpt>
      <trkpt lat="46.40926" lon="-1.57593">
        <ele>10</ele>
        <time>2023-10-30T18:54:07Z</time>
      </trkpt>
      <trkpt lat="46.40905" lon="-1.57377">
        <ele>9</ele>
        <time>2023-10-30T18:57:28Z</time>
      </trkpt>
      <trkpt lat="46.40888" lon="-1.5726">
        <ele>9</ele>
        <time>2023-10-30T18:59:18Z</time>
      </trkpt>
      <trkpt lat="46.40837" lon="-1.57162">
        <ele>7</ele>
        <time>2023-10-30T19:01:11Z</time>
      </trkpt>
      <trkpt lat="46.40837" lon="-1.56885">
        <ele>9</ele>
        <time>2023-10-30T19:05:26Z</time>
      </trkpt>
      <trkpt lat="46.40752" lon="-1.56753">
        <ele>5</ele>
        <time>2023-10-30T19:08:12Z</time>
      </trkpt>
      <trkpt lat="46.40757" lon="-1.56699">
        <ele>7</ele>
        <time>2023-10-30T19:09:02Z</time>
      </trkpt>
      <trkpt lat="46.407" lon="-1.56505">
        <ele>6</ele>
        <time>2023-10-30T19:12:16Z</time>
      </trkpt>
      <trkpt lat="46.40698" lon="-1.56429">
        <ele>8</ele>
        <time>2023-10-30T19:13:26Z</time>
      </trkpt>
      <trkpt lat="46.40671" lon="-1.56368">
        <ele>6</ele>
        <time>2023-10-30T19:14:33Z</time>
      </trkpt>
      <trkpt lat="46.40649" lon="-1.56101">
        <ele>5</ele>
        <time>2023-10-30T19:18:40Z</time>
      </trkpt>
      <trkpt lat="46.40663" lon="-1.56001">
        <ele>8</ele>
        <time>2023-10-30T19:20:14Z</time>
      </trkpt>
      <trkpt lat="46.40701" lon="-1.55924">
        <ele>9</ele>
        <time>2023-10-30T19:21:41Z</time>
      </trkpt>
      <trkpt lat="46.40701" lon="-1.55845">
        <ele>8</ele>
        <time>2023-10-30T19:22:54Z</time>
      </trkpt>
      <trkpt lat="46.40649" lon="-1.55611">
        <ele>5</ele>
        <time>2023-10-30T19:26:40Z</time>
      </trkpt>
      <trkpt lat="46.40645" lon="-1.55518">
        <ele>6</ele>
        <time>2023-10-30T19:28:06Z</time>
      </trkpt>
      <trkpt lat="46.40617" lon="-1.55377">
        <ele>5</ele>
        <time>2023-10-30T19:30:21Z</time>
      </trkpt>
      <trkpt lat="46.40623" lon="-1.55336">
        <ele>5</ele>
        <time>2023-10-30T19:31:00Z</time>
      </trkpt>
      <trkpt lat="46.40565" lon="-1.55062">
        <ele>3</ele>
        <time>2023-10-30T19:35:23Z</time>
      </trkpt>
      <trkpt lat="46.40582" lon="-1.54879">
        <ele>4</ele>
        <time>2023-10-30T19:38:13Z</time>
      </trkpt>
      <trkpt lat="46.40571" lon="-1.54834">
        <ele>3</ele>
        <time>2023-10-30T19:38:57Z</time>
      </trkpt>
      <trkpt lat="46.40617" lon="-1.54834">
        <ele>6</ele>
        <time>2023-10-30T19:39:59Z</time>
      </trkpt>
      <trkpt lat="46.40711" lon="-1.54679">
        <ele>5</ele>
        <time>2023-10-30T19:43:09Z</time>
      </trkpt>
      <trkpt lat="46.40848" lon="-1.54716">
        <ele>6</ele>
        <time>2023-10-30T19:46:15Z</time>
      </trkpt>
      <trkpt lat="46.4104" lon="-1.5465">
        <ele>3</ele>
        <time>2023-10-30T19:50:38Z</time>
      </trkpt>
      <trkpt lat="46.4101" lon="-1.54607">
        <ele>3</ele>
        <time>2023-10-30T19:51:34Z</time>
      </trkpt>
      <trkpt lat="46.40954" lon="-1.54538">
        <ele>4</ele>
        <time>2023-10-30T19:53:12Z</time>
      </trkpt>
      <trkpt lat="46.4093" lon="-1.54469">
        <ele>4</ele>
        <time>2023-10-30T19:54:23Z</time>
      </trkpt>
      <trkpt lat="46.4094" lon="-1.54353">
        <ele>3</ele>
        <time>2023-10-30T19:56:11Z</time>
      </trkpt>
      <trkpt lat="46.40984" lon="-1.54236">
        <ele>3</ele>
        <time>2023-10-30T19:58:14Z</time>
      </trkpt>
      <trkpt lat="46.41077" lon="-1.53823">
        <ele>7</ele>
        <time>2023-10-30T20:04:53Z</time>
      </trkpt>
      <trkpt lat="46.41142" lon="-1.53431">
        <ele>9</ele>
        <time>2023-10-30T20:11:04Z</time>
      </trkpt>
      <trkpt lat="46.41083" lon="-1.53523">
        <ele>9</ele>
        <time>2023-10-30T20:13:00Z</time>
      </trkpt>
      <trkpt lat="46.40977" lon="-1.53362">
        <ele>11</ele>
        <time>2023-10-30T20:16:25Z</time>
      </trkpt>
      <trkpt lat="46.40941" lon="-1.53285">
        <ele>11</ele>
        <time>2023-10-30T20:17:50Z</time>
      </trkpt>
      <trkpt lat="46.40958" lon="-1.53229">
        <ele>12</ele>
        <time>2023-10-30T20:18:47Z</time>
      </trkpt>
      <trkpt lat="46.40942" lon="-1.53207">
        <ele>11</ele>
        <time>2023-10-30T20:19:16Z</time>
      </trkpt>
      <trkpt lat="46.40959" lon="-1.53176">
        <ele>11</ele>
        <time>2023-10-30T20:19:52Z</time>
      </trkpt>
      <trkpt lat="46.41027" lon="-1.53158">
        <ele>14</ele>
        <time>2023-10-30T20:21:25Z</time>
      </trkpt>
      <trkpt lat="46.40879" lon="-1.52997">
        <ele>9</ele>
        <time>2023-10-30T20:25:32Z</time>
      </trkpt>
      <trkpt lat="46.40802" lon="-1.528">
        <ele>11</ele>
        <time>2023-10-30T20:29:00Z</time>
      </trkpt>
      <trkpt lat="46.40745" lon="-1.52561">
        <ele>12</ele>
        <time>2023-10-30T20:32:53Z</time>
      </trkpt>
      <trkpt lat="46.40667" lon="-1.5239">
        <ele>11</ele>
        <time>2023-10-30T20:36:01Z</time>
      </trkpt>
      <trkpt lat="46.4061" lon="-1.52322">
        <ele>10</ele>
        <time>2023-10-30T20:37:40Z</time>
      </trkpt>
      <trkpt lat="46.40571" lon="-1.52244">
        <ele>9</ele>
        <time>2023-10-30T20:39:08Z</time>
      </trkpt>
      <trkpt lat="46.40562" lon="-1.52179">
        <ele>9</ele>
        <time>2023-10-30T20:40:09Z</time>
      </trkpt>
      <trkpt lat="46.40575" lon="-1.52137">
        <ele>10</ele>
        <time>2023-10-30T20:40:52Z</time>
      </trkpt>
      <trkpt lat="46.4057" lon="-1.5198">
        <ele>10</ele>
        <time>2023-10-30T20:43:16Z</time>
      </trkpt>
      <trkpt lat="46.40532" lon="-1.51872">
        <ele>6</ele>
        <time>2023-10-30T20:45:08Z</time>
      </trkpt>
      <trkpt lat="46.40515" lon="-1.51738">
        <ele>7</ele>
        <time>2023-10-30T20:47:13Z</time>
      </trkpt>
      <trkpt lat="46.4053" lon="-1.51685">
        <ele>10</ele>
        <time>2023-10-30T20:48:06Z</time>
      </trkpt>
      <trkpt lat="46.40536" lon="-1.5161">
        <ele>11</ele>
        <time>2023-10-30T20:49:16Z</time>
      </trkpt>
      <trkpt lat="46.4051" lon="-1.51576">
        <ele>9</ele>
        <time>2023-10-30T20:50:02Z</time>
      </trkpt>
      <trkpt lat="46.40504" lon="-1.515">
        <ele>10</ele>
        <time>2023-10-30T20:51:13Z</time>
      </trkpt>
      <trkpt lat="46.40458" lon="-1.51435">
        <ele>8</ele>
        <time>2023-10-30T20:52:38Z</time>
      </trkpt>
      <trkpt lat="46.40439" lon="-1.5131">
        <ele>9</ele>
        <time>2023-10-30T20:54:36Z</time>
      </trkpt>
      <trkpt lat="46.4041" lon="-1.51309">
        <ele>7</ele>
        <time>2023-10-30T20:55:15Z</time>
      </trkpt>
      <trkpt lat="46.40324" lon="-1.51096">
        <ele>8</ele>
        <time>2023-10-30T20:59:02Z</time>
      </trkpt>
      <trkpt lat="46.40307" lon="-1.50945">
        <ele>8</ele>
        <time>2023-10-30T21:01:23Z</time>
      </trkpt>
      <trkpt lat="46.40281" lon="-1.50866">
        <ele>7</ele>
        <time>2023-10-30T21:02:43Z</time>
      </trkpt>
      <trkpt lat="46.40291" lon="-1.50821">
        <ele>7</ele>
        <time>2023-10-30T21:03:27Z</time>
      </trkpt>
      <trkpt lat="46.40273" lon="-1.50802">
        <ele>7</ele>
        <time>2023-10-30T21:03:57Z</time>
      </trkpt>
      <trkpt lat="46.40242" lon="-1.50816">
        <ele>7</ele>
        <time>2023-10-30T21:04:40Z</time>
      </trkpt>
      <trkpt lat="46.40158" lon="-1.50789">
        <ele>8</ele>
        <time>2023-10-30T21:06:35Z</time>
      </trkpt>
      <trkpt lat="46.40109" lon="-1.50646">
        <ele>8</ele>
        <time>2023-10-30T21:09:02Z</time>
      </trkpt>
      <trkpt lat="46.40024" lon="-1.50519">
        <ele>5</ele>
        <time>2023-10-30T21:11:45Z</time>
      </trkpt>
      <trkpt lat="46.39997" lon="-1.50439">
        <ele>8</ele>
        <time>2023-10-30T21:13:07Z</time>
      </trkpt>
      <trkpt lat="46.39969" lon="-1.50426">
        <ele>7</ele>
        <time>2023-10-30T21:13:46Z</time>
      </trkpt>
      <trkpt lat="46.39939" lon="-1.5036">
        <ele>7</ele>
        <time>2023-10-30T21:14:58Z</time>
      </trkpt>
      <trkpt lat="46.39976" lon="-1.50225">
        <ele>14</ele>
        <time>2023-10-30T21:17:12Z</time>
      </trkpt>
      <trkpt lat="46.39957" lon="-1.50157">
        <ele>14</ele>
        <time>2023-10-30T21:18:20Z</time>
      </trkpt>
      <trkpt lat="46.39944" lon="-1.49947">
        <ele>17</ele>
        <time>2023-10-30T21:21:34Z</time>
      </trkpt>
      <trkpt lat="46.39915" lon="-1.49729">
        <ele>17</ele>
        <time>2023-10-30T21:24:58Z</time>
      </trkpt>
      <trkpt lat="46.39918" lon="-1.49663">
        <ele>16</ele>
        <time>2023-10-30T21:25:59Z</time>
      </trkpt>
      <trkpt lat="46.39955" lon="-1.49601">
        <ele>13</ele>
        <time>2023-10-30T21:27:14Z</time>
      </trkpt>
      <trkpt lat="46.39927" lon="-1.49442">
        <ele>11</ele>
        <time>2023-10-30T21:29:45Z</time>
      </trkpt>
      <trkpt lat="46.3988" lon="-1.49307">
        <ele>11</ele>
        <time>2023-10-30T21:32:05Z</time>
      </trkpt>
      <trkpt lat="46.39883" lon="-1.49156">
        <ele>11</ele>
        <time>2023-10-30T21:34:24Z</time>
      </trkpt>
      <trkpt lat="46.39812" lon="-1.48985">
        <ele>11</ele>
        <time>2023-10-30T21:37:27Z</time>
      </trkpt>
      <trkpt lat="46.39758" lon="-1.48933">
        <ele>12</ele>
        <time>2023-10-30T21:38:54Z</time>
      </trkpt>
      <trkpt lat="46.39744" lon="-1.48884">
        <ele>12</ele>
        <time>2023-10-30T21:39:43Z</time>
      </trkpt>
      <trkpt lat="46.39776" lon="-1.48813">
        <ele>13</ele>
        <time>2023-10-30T21:41:01Z</time>
      </trkpt>
      <trkpt lat="46.39554" lon="-1.48611">
        <ele>9</ele>
        <time>2023-10-30T21:46:50Z</time>
      </trkpt>
    </trkseg>
  </trk>
  <trk>
    <name><![CDATA[GR8S3J5_StMichelHPontDeBrault_21km-12420365]]></name>
    <extensions>
      <line xmlns="http://www.topografix.com/GPX/gpx_style/0/2">
        <color>00FF00</color>
        <width>4</width>
      </line>
    </extensions>
    <trkseg>
      <trkpt lat="46.35768" lon="-1.25512">
        <ele>7</ele>
        <time>2023-10-30T14:38:18Z</time>
      </trkpt>
      <trkpt lat="46.35681" lon="-1.2565">
        <ele>5</ele>
        <time>2023-10-30T14:41:10Z</time>
      </trkpt>
      <trkpt lat="46.35367" lon="-1.25069">
        <ele>9</ele>
        <time>2023-10-30T14:52:30Z</time>
      </trkpt>
      <trkpt lat="46.35327" lon="-1.25087">
        <ele>10</ele>
        <time>2023-10-30T14:53:26Z</time>
      </trkpt>
      <trkpt lat="46.3516" lon="-1.24848">
        <ele>6</ele>
        <time>2023-10-30T14:58:39Z</time>
      </trkpt>
      <trkpt lat="46.35083" lon="-1.24758">
        <ele>4</ele>
        <time>2023-10-30T15:00:51Z</time>
      </trkpt>
      <trkpt lat="46.34418" lon="-1.24791">
        <ele>2</ele>
        <time>2023-10-30T15:15:39Z</time>
      </trkpt>
      <trkpt lat="46.34831" lon="-1.23109">
        <ele>1</ele>
        <time>2023-10-30T15:43:03Z</time>
      </trkpt>
      <trkpt lat="46.35494" lon="-1.23286">
        <ele>2.2</ele>
        <time>2023-10-30T15:58:03Z</time>
      </trkpt>
      <trkpt lat="46.35778" lon="-1.22231">
        <ele>1</ele>
        <time>2023-10-30T16:15:26Z</time>
      </trkpt>
      <trkpt lat="46.35869" lon="-1.21993">
        <ele>1</ele>
        <time>2023-10-30T16:19:37Z</time>
      </trkpt>
      <trkpt lat="46.35893" lon="-1.21914">
        <ele>2.8</ele>
        <time>2023-10-30T16:20:56Z</time>
      </trkpt>
      <trkpt lat="46.35926" lon="-1.21864">
        <ele>1</ele>
        <time>2023-10-30T16:22:00Z</time>
      </trkpt>
      <trkpt lat="46.35834" lon="-1.21714">
        <ele>3</ele>
        <time>2023-10-30T16:25:05Z</time>
      </trkpt>
      <trkpt lat="46.35786" lon="-1.21673">
        <ele>2</ele>
        <time>2023-10-30T16:26:19Z</time>
      </trkpt>
      <trkpt lat="46.35804" lon="-1.21635">
        <ele>2</ele>
        <time>2023-10-30T16:27:01Z</time>
      </trkpt>
      <trkpt lat="46.35961" lon="-1.21699">
        <ele>2</ele>
        <time>2023-10-30T16:30:39Z</time>
      </trkpt>
      <trkpt lat="46.3598" lon="-1.21669">
        <ele>3</ele>
        <time>2023-10-30T16:31:17Z</time>
      </trkpt>
      <trkpt lat="46.35915" lon="-1.2063">
        <ele>2</ele>
        <time>2023-10-30T16:47:17Z</time>
      </trkpt>
      <trkpt lat="46.37057" lon="-1.20847">
        <ele>1</ele>
        <time>2023-10-30T17:12:54Z</time>
      </trkpt>
      <trkpt lat="46.37296" lon="-1.20204">
        <ele>2</ele>
        <time>2023-10-30T17:24:07Z</time>
      </trkpt>
      <trkpt lat="46.36014" lon="-1.19622">
        <ele>2</ele>
        <time>2023-10-30T17:54:00Z</time>
      </trkpt>
      <trkpt lat="46.36162" lon="-1.1852">
        <ele>1</ele>
        <time>2023-10-30T18:11:14Z</time>
      </trkpt>
      <trkpt lat="46.36071" lon="-1.18071">
        <ele>1</ele>
        <time>2023-10-30T18:18:24Z</time>
      </trkpt>
      <trkpt lat="46.36097" lon="-1.18066">
        <ele>1</ele>
        <time>2023-10-30T18:18:59Z</time>
      </trkpt>
      <trkpt lat="46.36092" lon="-1.17787">
        <ele>1</ele>
        <time>2023-10-30T18:23:17Z</time>
      </trkpt>
      <trkpt lat="46.36111" lon="-1.17247">
        <ele>2</ele>
        <time>2023-10-30T18:31:34Z</time>
      </trkpt>
      <trkpt lat="46.35831" lon="-1.16867">
        <ele>2.8</ele>
        <time>2023-10-30T18:40:06Z</time>
      </trkpt>
      <trkpt lat="46.3581" lon="-1.16815">
        <ele>2</ele>
        <time>2023-10-30T18:41:02Z</time>
      </trkpt>
      <trkpt lat="46.35831" lon="-1.16661">
        <ele>2.7</ele>
        <time>2023-10-30T18:43:26Z</time>
      </trkpt>
      <trkpt lat="46.35575" lon="-1.16618">
        <ele>1</ele>
        <time>2023-10-30T18:49:10Z</time>
      </trkpt>
      <trkpt lat="46.35578" lon="-1.16581">
        <ele>2</ele>
        <time>2023-10-30T18:49:45Z</time>
      </trkpt>
      <trkpt lat="46.35508" lon="-1.1656">
        <ele>1</ele>
        <time>2023-10-30T18:51:20Z</time>
      </trkpt>
      <trkpt lat="46.35472" lon="-1.16446">
        <ele>2</ele>
        <time>2023-10-30T18:53:16Z</time>
      </trkpt>
      <trkpt lat="46.35455" lon="-1.16262">
        <ele>1</ele>
        <time>2023-10-30T18:56:07Z</time>
      </trkpt>
      <trkpt lat="46.34942" lon="-1.15191">
        <ele>1</ele>
        <time>2023-10-30T19:16:07Z</time>
      </trkpt>
      <trkpt lat="46.34793" lon="-1.15071">
        <ele>1</ele>
        <time>2023-10-30T19:19:55Z</time>
      </trkpt>
      <trkpt lat="46.34733" lon="-1.15064">
        <ele>1</ele>
        <time>2023-10-30T19:21:15Z</time>
      </trkpt>
      <trkpt lat="46.34624" lon="-1.15092">
        <ele>2.7</ele>
        <time>2023-10-30T19:23:43Z</time>
      </trkpt>
      <trkpt lat="46.34596" lon="-1.15075">
        <ele>-1</ele>
        <time>2023-10-30T19:24:23Z</time>
      </trkpt>
      <trkpt lat="46.34067" lon="-1.14004">
        <ele>2.6</ele>
        <time>2023-10-30T19:44:37Z</time>
      </trkpt>
      <trkpt lat="46.32968" lon="-1.12296">
        <ele>2</ele>
        <time>2023-10-30T20:20:28Z</time>
      </trkpt>
      <trkpt lat="46.32904" lon="-1.11732">
        <ele>2.8</ele>
        <time>2023-10-30T20:29:14Z</time>
      </trkpt>
      <trkpt lat="46.32928" lon="-1.11507">
        <ele>2.7</ele>
        <time>2023-10-30T20:32:44Z</time>
      </trkpt>
      <trkpt lat="46.32922" lon="-1.11457">
        <ele>1</ele>
        <time>2023-10-30T20:33:31Z</time>
      </trkpt>
      <trkpt lat="46.32945" lon="-1.11127">
        <ele>2.6</ele>
        <time>2023-10-30T20:38:37Z</time>
      </trkpt>
      <trkpt lat="46.33216" lon="-1.10618">
        <ele>1</ele>
        <time>2023-10-30T20:48:29Z</time>
      </trkpt>
      <trkpt lat="46.3316" lon="-1.10213">
        <ele>-1</ele>
        <time>2023-10-30T20:54:49Z</time>
      </trkpt>
      <trkpt lat="46.32945" lon="-1.10108">
        <ele>2.9</ele>
        <time>2023-10-30T20:59:52Z</time>
      </trkpt>
      <trkpt lat="46.32705" lon="-1.0985">
        <ele>3</ele>
        <time>2023-10-30T21:06:31Z</time>
      </trkpt>
      <trkpt lat="46.32282" lon="-1.09307">
        <ele>2.9</ele>
        <time>2023-10-30T21:19:05Z</time>
      </trkpt>
      <trkpt lat="46.31868" lon="-1.08862">
        <ele>1</ele>
        <time>2023-10-30T21:30:33Z</time>
      </trkpt>
      <trkpt lat="46.3183" lon="-1.08622">
        <ele>3</ele>
        <time>2023-10-30T21:34:20Z</time>
      </trkpt>
      <trkpt lat="46.31747" lon="-1.08424">
        <ele>2</ele>
        <time>2023-10-30T21:37:54Z</time>
      </trkpt>
      <trkpt lat="46.31775" lon="-1.08275">
        <ele>1</ele>
        <time>2023-10-30T21:40:16Z</time>
      </trkpt>
    </trkseg>
  </trk>
  <trk>
    <name><![CDATA[GR8S3J1_LesSablesTalmont_21.6km-12420312]]></name>
    <extensions>
      <line xmlns="http://www.topografix.com/GPX/gpx_style/0/2">
        <color>FF0000</color>
        <width>4</width>
      </line>
    </extensions>
    <trkseg>
      <trkpt lat="46.48958" lon="-1.79796">
        <ele>8</ele>
        <time>2023-10-30T14:38:03Z</time>
      </trkpt>
      <trkpt lat="46.48939" lon="-1.79689">
        <ele>7</ele>
        <time>2023-10-30T14:39:45Z</time>
      </trkpt>
      <trkpt lat="46.48963" lon="-1.79616">
        <ele>9</ele>
        <time>2023-10-30T14:40:59Z</time>
      </trkpt>
      <trkpt lat="46.49034" lon="-1.79562">
        <ele>11</ele>
        <time>2023-10-30T14:42:46Z</time>
      </trkpt>
      <trkpt lat="46.49097" lon="-1.79468">
        <ele>8</ele>
        <time>2023-10-30T14:44:46Z</time>
      </trkpt>
      <trkpt lat="46.49187" lon="-1.7953">
        <ele>8</ele>
        <time>2023-10-30T14:46:59Z</time>
      </trkpt>
      <trkpt lat="46.49214" lon="-1.7953">
        <ele>8</ele>
        <time>2023-10-30T14:47:35Z</time>
      </trkpt>
      <trkpt lat="46.49263" lon="-1.795">
        <ele>7</ele>
        <time>2023-10-30T14:48:46Z</time>
      </trkpt>
      <trkpt lat="46.49502" lon="-1.7961">
        <ele>5</ele>
        <time>2023-10-30T14:54:21Z</time>
      </trkpt>
      <trkpt lat="46.49673" lon="-1.7964">
        <ele>4</ele>
        <time>2023-10-30T14:58:11Z</time>
      </trkpt>
      <trkpt lat="46.49619" lon="-1.79494">
        <ele>1</ele>
        <time>2023-10-30T15:00:43Z</time>
      </trkpt>
      <trkpt lat="46.49586" lon="-1.79513">
        <ele>3</ele>
        <time>2023-10-30T15:01:30Z</time>
      </trkpt>
      <trkpt lat="46.49463" lon="-1.79455">
        <ele>6</ele>
        <time>2023-10-30T15:04:23Z</time>
      </trkpt>
      <trkpt lat="46.49403" lon="-1.79391">
        <ele>6</ele>
        <time>2023-10-30T15:06:02Z</time>
      </trkpt>
      <trkpt lat="46.49342" lon="-1.79268">
        <ele>8</ele>
        <time>2023-10-30T15:08:21Z</time>
      </trkpt>
      <trkpt lat="46.49461" lon="-1.79135">
        <ele>10</ele>
        <time>2023-10-30T15:11:42Z</time>
      </trkpt>
      <trkpt lat="46.49455" lon="-1.7835">
        <ele>7</ele>
        <time>2023-10-30T15:23:43Z</time>
      </trkpt>
      <trkpt lat="46.49396" lon="-1.78052">
        <ele>9</ele>
        <time>2023-10-30T15:28:28Z</time>
      </trkpt>
      <trkpt lat="46.49302" lon="-1.77773">
        <ele>7</ele>
        <time>2023-10-30T15:33:13Z</time>
      </trkpt>
      <trkpt lat="46.49223" lon="-1.77623">
        <ele>7</ele>
        <time>2023-10-30T15:36:07Z</time>
      </trkpt>
      <trkpt lat="46.49112" lon="-1.77455">
        <ele>5</ele>
        <time>2023-10-30T15:39:41Z</time>
      </trkpt>
      <trkpt lat="46.48899" lon="-1.76964">
        <ele>7</ele>
        <time>2023-10-30T15:48:34Z</time>
      </trkpt>
      <trkpt lat="46.48494" lon="-1.76593">
        <ele>7</ele>
        <time>2023-10-30T15:59:13Z</time>
      </trkpt>
      <trkpt lat="46.48107" lon="-1.76131">
        <ele>5</ele>
        <time>2023-10-30T16:10:21Z</time>
      </trkpt>
      <trkpt lat="46.48029" lon="-1.76071">
        <ele>5</ele>
        <time>2023-10-30T16:12:19Z</time>
      </trkpt>
      <trkpt lat="46.47874" lon="-1.76015">
        <ele>8</ele>
        <time>2023-10-30T16:15:52Z</time>
      </trkpt>
      <trkpt lat="46.47806" lon="-1.75968">
        <ele>8</ele>
        <time>2023-10-30T16:17:33Z</time>
      </trkpt>
      <trkpt lat="46.47742" lon="-1.75891">
        <ele>8</ele>
        <time>2023-10-30T16:19:24Z</time>
      </trkpt>
      <trkpt lat="46.47671" lon="-1.75777">
        <ele>8</ele>
        <time>2023-10-30T16:21:45Z</time>
      </trkpt>
      <trkpt lat="46.47562" lon="-1.75653">
        <ele>8</ele>
        <time>2023-10-30T16:24:50Z</time>
      </trkpt>
      <trkpt lat="46.47519" lon="-1.7558">
        <ele>7</ele>
        <time>2023-10-30T16:26:18Z</time>
      </trkpt>
      <trkpt lat="46.47479" lon="-1.75331">
        <ele>7</ele>
        <time>2023-10-30T16:30:13Z</time>
      </trkpt>
      <trkpt lat="46.47368" lon="-1.74822">
        <ele>10</ele>
        <time>2023-10-30T16:38:24Z</time>
      </trkpt>
      <trkpt lat="46.46997" lon="-1.74198">
        <ele>9</ele>
        <time>2023-10-30T16:51:01Z</time>
      </trkpt>
      <trkpt lat="46.46903" lon="-1.74157">
        <ele>5</ele>
        <time>2023-10-30T16:53:12Z</time>
      </trkpt>
      <trkpt lat="46.46862" lon="-1.74054">
        <ele>6</ele>
        <time>2023-10-30T16:55:02Z</time>
      </trkpt>
      <trkpt lat="46.46823" lon="-1.7387">
        <ele>5</ele>
        <time>2023-10-30T16:57:59Z</time>
      </trkpt>
      <trkpt lat="46.46848" lon="-1.73745">
        <ele>5</ele>
        <time>2023-10-30T16:59:58Z</time>
      </trkpt>
      <trkpt lat="46.46826" lon="-1.73698">
        <ele>5</ele>
        <time>2023-10-30T17:00:50Z</time>
      </trkpt>
      <trkpt lat="46.46799" lon="-1.73677">
        <ele>5</ele>
        <time>2023-10-30T17:01:31Z</time>
      </trkpt>
      <trkpt lat="46.46854" lon="-1.73542">
        <ele>10</ele>
        <time>2023-10-30T17:03:55Z</time>
      </trkpt>
      <trkpt lat="46.4682" lon="-1.73495">
        <ele>12</ele>
        <time>2023-10-30T17:04:58Z</time>
      </trkpt>
      <trkpt lat="46.46774" lon="-1.73252">
        <ele>16</ele>
        <time>2023-10-30T17:08:50Z</time>
      </trkpt>
      <trkpt lat="46.46772" lon="-1.73128">
        <ele>18</ele>
        <time>2023-10-30T17:10:44Z</time>
      </trkpt>
      <trkpt lat="46.46762" lon="-1.73068">
        <ele>19</ele>
        <time>2023-10-30T17:11:41Z</time>
      </trkpt>
      <trkpt lat="46.4678" lon="-1.73044">
        <ele>20</ele>
        <time>2023-10-30T17:12:13Z</time>
      </trkpt>
      <trkpt lat="46.46781" lon="-1.72905">
        <ele>21</ele>
        <time>2023-10-30T17:14:21Z</time>
      </trkpt>
      <trkpt lat="46.46753" lon="-1.72881">
        <ele>20</ele>
        <time>2023-10-30T17:15:04Z</time>
      </trkpt>
      <trkpt lat="46.46735" lon="-1.7278">
        <ele>22</ele>
        <time>2023-10-30T17:16:40Z</time>
      </trkpt>
      <trkpt lat="46.46707" lon="-1.72741">
        <ele>23</ele>
        <time>2023-10-30T17:17:32Z</time>
      </trkpt>
      <trkpt lat="46.46651" lon="-1.72705">
        <ele>21</ele>
        <time>2023-10-30T17:18:54Z</time>
      </trkpt>
      <trkpt lat="46.46583" lon="-1.72574">
        <ele>22</ele>
        <time>2023-10-30T17:21:24Z</time>
      </trkpt>
      <trkpt lat="46.46528" lon="-1.72634">
        <ele>21</ele>
        <time>2023-10-30T17:22:56Z</time>
      </trkpt>
      <trkpt lat="46.46489" lon="-1.72525">
        <ele>23</ele>
        <time>2023-10-30T17:24:49Z</time>
      </trkpt>
      <trkpt lat="46.46409" lon="-1.72576">
        <ele>22</ele>
        <time>2023-10-30T17:26:46Z</time>
      </trkpt>
      <trkpt lat="46.4636" lon="-1.72323">
        <ele>25</ele>
        <time>2023-10-30T17:30:47Z</time>
      </trkpt>
      <trkpt lat="46.46218" lon="-1.72409">
        <ele>27</ele>
        <time>2023-10-30T17:34:13Z</time>
      </trkpt>
      <trkpt lat="46.46098" lon="-1.72546">
        <ele>14</ele>
        <time>2023-10-30T17:37:36Z</time>
      </trkpt>
      <trkpt lat="46.46054" lon="-1.7251">
        <ele>15</ele>
        <time>2023-10-30T17:38:44Z</time>
      </trkpt>
      <trkpt lat="46.4598" lon="-1.72506">
        <ele>10</ele>
        <time>2023-10-30T17:40:23Z</time>
      </trkpt>
      <trkpt lat="46.45936" lon="-1.7246">
        <ele>8</ele>
        <time>2023-10-30T17:41:35Z</time>
      </trkpt>
      <trkpt lat="46.45885" lon="-1.7233">
        <ele>9</ele>
        <time>2023-10-30T17:43:52Z</time>
      </trkpt>
      <trkpt lat="46.45832" lon="-1.72269">
        <ele>6</ele>
        <time>2023-10-30T17:45:23Z</time>
      </trkpt>
      <trkpt lat="46.458" lon="-1.72182">
        <ele>5</ele>
        <time>2023-10-30T17:46:53Z</time>
      </trkpt>
      <trkpt lat="46.45816" lon="-1.72147">
        <ele>5</ele>
        <time>2023-10-30T17:47:32Z</time>
      </trkpt>
      <trkpt lat="46.45874" lon="-1.72164">
        <ele>11</ele>
        <time>2023-10-30T17:48:51Z</time>
      </trkpt>
      <trkpt lat="46.45915" lon="-1.72104">
        <ele>10</ele>
        <time>2023-10-30T17:50:09Z</time>
      </trkpt>
      <trkpt lat="46.45933" lon="-1.7201">
        <ele>9</ele>
        <time>2023-10-30T17:51:38Z</time>
      </trkpt>
      <trkpt lat="46.45927" lon="-1.719">
        <ele>9</ele>
        <time>2023-10-30T17:53:20Z</time>
      </trkpt>
      <trkpt lat="46.45951" lon="-1.71761">
        <ele>11</ele>
        <time>2023-10-30T17:55:32Z</time>
      </trkpt>
      <trkpt lat="46.45937" lon="-1.7172">
        <ele>9</ele>
        <time>2023-10-30T17:56:14Z</time>
      </trkpt>
      <trkpt lat="46.45906" lon="-1.71688">
        <ele>6</ele>
        <time>2023-10-30T17:57:04Z</time>
      </trkpt>
      <trkpt lat="46.45897" lon="-1.71574">
        <ele>8</ele>
        <time>2023-10-30T17:58:50Z</time>
      </trkpt>
      <trkpt lat="46.45903" lon="-1.7151">
        <ele>6</ele>
        <time>2023-10-30T17:59:49Z</time>
      </trkpt>
      <trkpt lat="46.45921" lon="-1.71473">
        <ele>6</ele>
        <time>2023-10-30T18:00:31Z</time>
      </trkpt>
      <trkpt lat="46.4589" lon="-1.71388">
        <ele>5</ele>
        <time>2023-10-30T18:01:59Z</time>
      </trkpt>
      <trkpt lat="46.45769" lon="-1.71308">
        <ele>8</ele>
        <time>2023-10-30T18:04:57Z</time>
      </trkpt>
      <trkpt lat="46.4569" lon="-1.71233">
        <ele>11</ele>
        <time>2023-10-30T18:07:03Z</time>
      </trkpt>
      <trkpt lat="46.45618" lon="-1.71199">
        <ele>11</ele>
        <time>2023-10-30T18:08:44Z</time>
      </trkpt>
      <trkpt lat="46.45442" lon="-1.71141">
        <ele>8</ele>
        <time>2023-10-30T18:12:45Z</time>
      </trkpt>
      <trkpt lat="46.45383" lon="-1.71053">
        <ele>9</ele>
        <time>2023-10-30T18:14:37Z</time>
      </trkpt>
      <trkpt lat="46.45309" lon="-1.71033">
        <ele>10</ele>
        <time>2023-10-30T18:16:18Z</time>
      </trkpt>
      <trkpt lat="46.45237" lon="-1.71085">
        <ele>6</ele>
        <time>2023-10-30T18:18:05Z</time>
      </trkpt>
      <trkpt lat="46.45188" lon="-1.71083">
        <ele>5</ele>
        <time>2023-10-30T18:19:11Z</time>
      </trkpt>
      <trkpt lat="46.45145" lon="-1.71044">
        <ele>5</ele>
        <time>2023-10-30T18:20:18Z</time>
      </trkpt>
      <trkpt lat="46.45115" lon="-1.70761">
        <ele>8</ele>
        <time>2023-10-30T18:24:42Z</time>
      </trkpt>
      <trkpt lat="46.45093" lon="-1.70628">
        <ele>11</ele>
        <time>2023-10-30T18:26:47Z</time>
      </trkpt>
      <trkpt lat="46.45072" lon="-1.70585">
        <ele>11</ele>
        <time>2023-10-30T18:27:36Z</time>
      </trkpt>
      <trkpt lat="46.45025" lon="-1.70615">
        <ele>6</ele>
        <time>2023-10-30T18:28:44Z</time>
      </trkpt>
      <trkpt lat="46.44999" lon="-1.70598">
        <ele>5</ele>
        <time>2023-10-30T18:29:22Z</time>
      </trkpt>
      <trkpt lat="46.44969" lon="-1.70516">
        <ele>8</ele>
        <time>2023-10-30T18:30:48Z</time>
      </trkpt>
      <trkpt lat="46.44922" lon="-1.70474">
        <ele>6</ele>
        <time>2023-10-30T18:32:01Z</time>
      </trkpt>
      <trkpt lat="46.4487" lon="-1.70295">
        <ele>8</ele>
        <time>2023-10-30T18:35:00Z</time>
      </trkpt>
      <trkpt lat="46.44843" lon="-1.70231">
        <ele>7</ele>
        <time>2023-10-30T18:36:09Z</time>
      </trkpt>
      <trkpt lat="46.44831" lon="-1.70158">
        <ele>8</ele>
        <time>2023-10-30T18:37:18Z</time>
      </trkpt>
      <trkpt lat="46.44794" lon="-1.70104">
        <ele>6</ele>
        <time>2023-10-30T18:38:28Z</time>
      </trkpt>
      <trkpt lat="46.4475" lon="-1.69856">
        <ele>8</ele>
        <time>2023-10-30T18:42:23Z</time>
      </trkpt>
      <trkpt lat="46.44732" lon="-1.69797">
        <ele>7</ele>
        <time>2023-10-30T18:43:23Z</time>
      </trkpt>
      <trkpt lat="46.44768" lon="-1.69742">
        <ele>10</ele>
        <time>2023-10-30T18:44:33Z</time>
      </trkpt>
      <trkpt lat="46.44762" lon="-1.69669">
        <ele>8</ele>
        <time>2023-10-30T18:45:40Z</time>
      </trkpt>
      <trkpt lat="46.44715" lon="-1.69579">
        <ele>8</ele>
        <time>2023-10-30T18:47:24Z</time>
      </trkpt>
      <trkpt lat="46.44567" lon="-1.69461">
        <ele>7</ele>
        <time>2023-10-30T18:51:09Z</time>
      </trkpt>
      <trkpt lat="46.44517" lon="-1.69433">
        <ele>6</ele>
        <time>2023-10-30T18:52:21Z</time>
      </trkpt>
      <trkpt lat="46.44466" lon="-1.69274">
        <ele>9</ele>
        <time>2023-10-30T18:55:02Z</time>
      </trkpt>
      <trkpt lat="46.44369" lon="-1.69124">
        <ele>7</ele>
        <time>2023-10-30T18:58:11Z</time>
      </trkpt>
      <trkpt lat="46.44344" lon="-1.69014">
        <ele>9</ele>
        <time>2023-10-30T18:59:58Z</time>
      </trkpt>
      <trkpt lat="46.4436" lon="-1.68954">
        <ele>13</ele>
        <time>2023-10-30T19:00:57Z</time>
      </trkpt>
      <trkpt lat="46.44327" lon="-1.68907">
        <ele>12</ele>
        <time>2023-10-30T19:01:59Z</time>
      </trkpt>
      <trkpt lat="46.44292" lon="-1.68821">
        <ele>10</ele>
        <time>2023-10-30T19:03:30Z</time>
      </trkpt>
      <trkpt lat="46.44264" lon="-1.68868">
        <ele>5</ele>
        <time>2023-10-30T19:04:28Z</time>
      </trkpt>
      <trkpt lat="46.44264" lon="-1.68791">
        <ele>6</ele>
        <time>2023-10-30T19:05:38Z</time>
      </trkpt>
      <trkpt lat="46.44277" lon="-1.6875">
        <ele>8</ele>
        <time>2023-10-30T19:06:20Z</time>
      </trkpt>
      <trkpt lat="46.44218" lon="-1.68493">
        <ele>8</ele>
        <time>2023-10-30T19:10:29Z</time>
      </trkpt>
      <trkpt lat="46.44213" lon="-1.68401">
        <ele>9</ele>
        <time>2023-10-30T19:11:54Z</time>
      </trkpt>
      <trkpt lat="46.44202" lon="-1.68317">
        <ele>8</ele>
        <time>2023-10-30T19:13:12Z</time>
      </trkpt>
      <trkpt lat="46.44162" lon="-1.6824">
        <ele>5</ele>
        <time>2023-10-30T19:14:41Z</time>
      </trkpt>
      <trkpt lat="46.44145" lon="-1.68195">
        <ele>5</ele>
        <time>2023-10-30T19:15:28Z</time>
      </trkpt>
      <trkpt lat="46.44125" lon="-1.68083">
        <ele>5</ele>
        <time>2023-10-30T19:17:15Z</time>
      </trkpt>
      <trkpt lat="46.44142" lon="-1.67911">
        <ele>9</ele>
        <time>2023-10-30T19:19:55Z</time>
      </trkpt>
      <trkpt lat="46.44126" lon="-1.67841">
        <ele>7</ele>
        <time>2023-10-30T19:21:02Z</time>
      </trkpt>
      <trkpt lat="46.44126" lon="-1.67796">
        <ele>7</ele>
        <time>2023-10-30T19:21:44Z</time>
      </trkpt>
      <trkpt lat="46.4411" lon="-1.67708">
        <ele>7</ele>
        <time>2023-10-30T19:23:07Z</time>
      </trkpt>
      <trkpt lat="46.44076" lon="-1.67628">
        <ele>6</ele>
        <time>2023-10-30T19:24:34Z</time>
      </trkpt>
      <trkpt lat="46.44074" lon="-1.67602">
        <ele>7</ele>
        <time>2023-10-30T19:24:58Z</time>
      </trkpt>
      <trkpt lat="46.44094" lon="-1.67572">
        <ele>9</ele>
        <time>2023-10-30T19:25:36Z</time>
      </trkpt>
      <trkpt lat="46.44033" lon="-1.67523">
        <ele>7</ele>
        <time>2023-10-30T19:27:09Z</time>
      </trkpt>
      <trkpt lat="46.43804" lon="-1.67226">
        <ele>4</ele>
        <time>2023-10-30T19:33:59Z</time>
      </trkpt>
      <trkpt lat="46.43839" lon="-1.6717">
        <ele>7</ele>
        <time>2023-10-30T19:35:09Z</time>
      </trkpt>
      <trkpt lat="46.43856" lon="-1.67046">
        <ele>11</ele>
        <time>2023-10-30T19:37:05Z</time>
      </trkpt>
      <trkpt lat="46.43817" lon="-1.67009">
        <ele>7</ele>
        <time>2023-10-30T19:38:07Z</time>
      </trkpt>
      <trkpt lat="46.43791" lon="-1.66964">
        <ele>5</ele>
        <time>2023-10-30T19:39:01Z</time>
      </trkpt>
      <trkpt lat="46.43795" lon="-1.66754">
        <ele>5</ele>
        <time>2023-10-30T19:42:14Z</time>
      </trkpt>
      <trkpt lat="46.43764" lon="-1.66644">
        <ele>5</ele>
        <time>2023-10-30T19:44:04Z</time>
      </trkpt>
      <trkpt lat="46.4366" lon="-1.66488">
        <ele>4</ele>
        <time>2023-10-30T19:47:23Z</time>
      </trkpt>
      <trkpt lat="46.43604" lon="-1.66423">
        <ele>4</ele>
        <time>2023-10-30T19:48:59Z</time>
      </trkpt>
      <trkpt lat="46.43587" lon="-1.66289">
        <ele>12</ele>
        <time>2023-10-30T19:51:04Z</time>
      </trkpt>
      <trkpt lat="46.4355" lon="-1.6622">
        <ele>11</ele>
        <time>2023-10-30T19:52:25Z</time>
      </trkpt>
      <trkpt lat="46.4355" lon="-1.66128">
        <ele>13</ele>
        <time>2023-10-30T19:53:49Z</time>
      </trkpt>
      <trkpt lat="46.43513" lon="-1.66065">
        <ele>13</ele>
        <time>2023-10-30T19:55:05Z</time>
      </trkpt>
      <trkpt lat="46.43545" lon="-1.65883">
        <ele>12</ele>
        <time>2023-10-30T19:57:58Z</time>
      </trkpt>
      <trkpt lat="46.43609" lon="-1.65883">
        <ele>16</ele>
        <time>2023-10-30T19:59:24Z</time>
      </trkpt>
      <trkpt lat="46.43684" lon="-1.65868">
        <ele>18</ele>
        <time>2023-10-30T20:01:05Z</time>
      </trkpt>
      <trkpt lat="46.43739" lon="-1.659">
        <ele>18</ele>
        <time>2023-10-30T20:02:24Z</time>
      </trkpt>
      <trkpt lat="46.43828" lon="-1.65987">
        <ele>15</ele>
        <time>2023-10-30T20:04:47Z</time>
      </trkpt>
      <trkpt lat="46.43977" lon="-1.66241">
        <ele>12</ele>
        <time>2023-10-30T20:09:54Z</time>
      </trkpt>
      <trkpt lat="46.44" lon="-1.66204">
        <ele>14</ele>
        <time>2023-10-30T20:10:39Z</time>
      </trkpt>
      <trkpt lat="46.44032" lon="-1.66022">
        <ele>15</ele>
        <time>2023-10-30T20:13:32Z</time>
      </trkpt>
      <trkpt lat="46.43999" lon="-1.65756">
        <ele>16</ele>
        <time>2023-10-30T20:17:41Z</time>
      </trkpt>
      <trkpt lat="46.44024" lon="-1.65252">
        <ele>13</ele>
        <time>2023-10-30T20:25:25Z</time>
      </trkpt>
      <trkpt lat="46.44065" lon="-1.65249">
        <ele>7</ele>
        <time>2023-10-30T20:26:20Z</time>
      </trkpt>
      <trkpt lat="46.442" lon="-1.65126">
        <ele>1</ele>
        <time>2023-10-30T20:29:53Z</time>
      </trkpt>
      <trkpt lat="46.44277" lon="-1.65082">
        <ele>3</ele>
        <time>2023-10-30T20:31:43Z</time>
      </trkpt>
      <trkpt lat="46.44978" lon="-1.65157">
        <ele>3</ele>
        <time>2023-10-30T20:47:21Z</time>
      </trkpt>
      <trkpt lat="46.45014" lon="-1.65185">
        <ele>3</ele>
        <time>2023-10-30T20:48:16Z</time>
      </trkpt>
      <trkpt lat="46.45053" lon="-1.65282">
        <ele>5</ele>
        <time>2023-10-30T20:49:59Z</time>
      </trkpt>
      <trkpt lat="46.45101" lon="-1.65312">
        <ele>6</ele>
        <time>2023-10-30T20:51:09Z</time>
      </trkpt>
      <trkpt lat="46.45185" lon="-1.65329">
        <ele>7</ele>
        <time>2023-10-30T20:53:02Z</time>
      </trkpt>
      <trkpt lat="46.45228" lon="-1.65355">
        <ele>8</ele>
        <time>2023-10-30T20:54:04Z</time>
      </trkpt>
      <trkpt lat="46.45285" lon="-1.65326">
        <ele>9</ele>
        <time>2023-10-30T20:55:25Z</time>
      </trkpt>
      <trkpt lat="46.45322" lon="-1.65263">
        <ele>11</ele>
        <time>2023-10-30T20:56:41Z</time>
      </trkpt>
      <trkpt lat="46.45368" lon="-1.65217">
        <ele>13</ele>
        <time>2023-10-30T20:57:55Z</time>
      </trkpt>
      <trkpt lat="46.45487" lon="-1.65123">
        <ele>19</ele>
        <time>2023-10-30T21:00:56Z</time>
      </trkpt>
      <trkpt lat="46.45614" lon="-1.65069">
        <ele>22</ele>
        <time>2023-10-30T21:03:53Z</time>
      </trkpt>
      <trkpt lat="46.45553" lon="-1.64886">
        <ele>19</ele>
        <time>2023-10-30T21:07:00Z</time>
      </trkpt>
      <trkpt lat="46.45519" lon="-1.6488">
        <ele>18</ele>
        <time>2023-10-30T21:07:45Z</time>
      </trkpt>
      <trkpt lat="46.45458" lon="-1.64904">
        <ele>15</ele>
        <time>2023-10-30T21:09:10Z</time>
      </trkpt>
      <trkpt lat="46.4541" lon="-1.649">
        <ele>13</ele>
        <time>2023-10-30T21:10:14Z</time>
      </trkpt>
      <trkpt lat="46.45373" lon="-1.64811">
        <ele>12</ele>
        <time>2023-10-30T21:11:49Z</time>
      </trkpt>
      <trkpt lat="46.45319" lon="-1.64736">
        <ele>12</ele>
        <time>2023-10-30T21:13:29Z</time>
      </trkpt>
      <trkpt lat="46.45294" lon="-1.64683">
        <ele>10</ele>
        <time>2023-10-30T21:14:28Z</time>
      </trkpt>
      <trkpt lat="46.45268" lon="-1.64561">
        <ele>8</ele>
        <time>2023-10-30T21:16:26Z</time>
      </trkpt>
      <trkpt lat="46.45269" lon="-1.6441">
        <ele>8</ele>
        <time>2023-10-30T21:18:44Z</time>
      </trkpt>
      <trkpt lat="46.45237" lon="-1.64284">
        <ele>8</ele>
        <time>2023-10-30T21:20:48Z</time>
      </trkpt>
      <trkpt lat="46.45201" lon="-1.64235">
        <ele>7</ele>
        <time>2023-10-30T21:21:54Z</time>
      </trkpt>
      <trkpt lat="46.45497" lon="-1.64164">
        <ele>18</ele>
        <time>2023-10-30T21:28:34Z</time>
      </trkpt>
      <trkpt lat="46.45546" lon="-1.64122">
        <ele>19</ele>
        <time>2023-10-30T21:29:50Z</time>
      </trkpt>
      <trkpt lat="46.45594" lon="-1.64031">
        <ele>20</ele>
        <time>2023-10-30T21:31:35Z</time>
      </trkpt>
      <trkpt lat="46.45646" lon="-1.6397">
        <ele>19</ele>
        <time>2023-10-30T21:33:05Z</time>
      </trkpt>
      <trkpt lat="46.45674" lon="-1.63909">
        <ele>16</ele>
        <time>2023-10-30T21:34:12Z</time>
      </trkpt>
      <trkpt lat="46.4572" lon="-1.63767">
        <ele>9</ele>
        <time>2023-10-30T21:36:36Z</time>
      </trkpt>
      <trkpt lat="46.45786" lon="-1.63724">
        <ele>12</ele>
        <time>2023-10-30T21:38:13Z</time>
      </trkpt>
      <trkpt lat="46.4582" lon="-1.63676">
        <ele>17</ele>
        <time>2023-10-30T21:39:16Z</time>
      </trkpt>
      <trkpt lat="46.46018" lon="-1.63551">
        <ele>23</ele>
        <time>2023-10-30T21:44:04Z</time>
      </trkpt>
      <trkpt lat="46.46109" lon="-1.63537">
        <ele>25</ele>
        <time>2023-10-30T21:46:06Z</time>
      </trkpt>
      <trkpt lat="46.46331" lon="-1.63572">
        <ele>27</ele>
        <time>2023-10-30T21:51:04Z</time>
      </trkpt>
    </trkseg>
  </trk>
  <trk>
    <name><![CDATA[GR8S3J4_LafauteStMichelH_20.8km-12420354]]></name>
    <extensions>
      <line xmlns="http://www.topografix.com/GPX/gpx_style/0/2">
        <color>00FFFF</color>
        <width>4</width>
      </line>
    </extensions>
    <trkseg>
      <trkpt lat="46.33421" lon="-1.3325">
        <ele>5</ele>
        <time>2023-10-30T14:37:46Z</time>
      </trkpt>
      <trkpt lat="46.33222" lon="-1.32984">
        <ele>3</ele>
        <time>2023-10-30T14:43:47Z</time>
      </trkpt>
      <trkpt lat="46.33234" lon="-1.32906">
        <ele>4</ele>
        <time>2023-10-30T14:45:01Z</time>
      </trkpt>
      <trkpt lat="46.33237" lon="-1.32574">
        <ele>2</ele>
        <time>2023-10-30T14:50:07Z</time>
      </trkpt>
      <trkpt lat="46.33255" lon="-1.32297">
        <ele>4</ele>
        <time>2023-10-30T14:54:23Z</time>
      </trkpt>
      <trkpt lat="46.33279" lon="-1.32164">
        <ele>4</ele>
        <time>2023-10-30T14:56:30Z</time>
      </trkpt>
      <trkpt lat="46.33341" lon="-1.31952">
        <ele>2</ele>
        <time>2023-10-30T15:00:02Z</time>
      </trkpt>
      <trkpt lat="46.33326" lon="-1.31924">
        <ele>2</ele>
        <time>2023-10-30T15:00:35Z</time>
      </trkpt>
      <trkpt lat="46.33535" lon="-1.3154">
        <ele>2</ele>
        <time>2023-10-30T15:08:05Z</time>
      </trkpt>
      <trkpt lat="46.33456" lon="-1.31362">
        <ele>4</ele>
        <time>2023-10-30T15:11:20Z</time>
      </trkpt>
      <trkpt lat="46.33443" lon="-1.3131">
        <ele>4</ele>
        <time>2023-10-30T15:12:11Z</time>
      </trkpt>
      <trkpt lat="46.33382" lon="-1.31271">
        <ele>3</ele>
        <time>2023-10-30T15:13:40Z</time>
      </trkpt>
      <trkpt lat="46.33289" lon="-1.31151">
        <ele>1</ele>
        <time>2023-10-30T15:16:26Z</time>
      </trkpt>
      <trkpt lat="46.33279" lon="-1.31115">
        <ele>1.9</ele>
        <time>2023-10-30T15:17:02Z</time>
      </trkpt>
      <trkpt lat="46.33251" lon="-1.31057">
        <ele>3.9</ele>
        <time>2023-10-30T15:18:07Z</time>
      </trkpt>
      <trkpt lat="46.33172" lon="-1.3084">
        <ele>2</ele>
        <time>2023-10-30T15:21:53Z</time>
      </trkpt>
      <trkpt lat="46.33136" lon="-1.30817">
        <ele>2</ele>
        <time>2023-10-30T15:22:46Z</time>
      </trkpt>
      <trkpt lat="46.33154" lon="-1.30784">
        <ele>3</ele>
        <time>2023-10-30T15:23:25Z</time>
      </trkpt>
      <trkpt lat="46.33139" lon="-1.30759">
        <ele>3</ele>
        <time>2023-10-30T15:23:55Z</time>
      </trkpt>
      <trkpt lat="46.33182" lon="-1.30718">
        <ele>4</ele>
        <time>2023-10-30T15:25:04Z</time>
      </trkpt>
      <trkpt lat="46.33089" lon="-1.30559">
        <ele>1</ele>
        <time>2023-10-30T15:28:16Z</time>
      </trkpt>
      <trkpt lat="46.32969" lon="-1.30394">
        <ele>2</ele>
        <time>2023-10-30T15:31:57Z</time>
      </trkpt>
      <trkpt lat="46.32996" lon="-1.30353">
        <ele>3</ele>
        <time>2023-10-30T15:32:49Z</time>
      </trkpt>
      <trkpt lat="46.32968" lon="-1.30312">
        <ele>3</ele>
        <time>2023-10-30T15:33:42Z</time>
      </trkpt>
      <trkpt lat="46.32895" lon="-1.30158">
        <ele>4</ele>
        <time>2023-10-30T15:36:34Z</time>
      </trkpt>
      <trkpt lat="46.32736" lon="-1.29928">
        <ele>3</ele>
        <time>2023-10-30T15:41:34Z</time>
      </trkpt>
      <trkpt lat="46.32736" lon="-1.29896">
        <ele>3</ele>
        <time>2023-10-30T15:42:04Z</time>
      </trkpt>
      <trkpt lat="46.32439" lon="-1.296">
        <ele>4</ele>
        <time>2023-10-30T15:50:05Z</time>
      </trkpt>
      <trkpt lat="46.32277" lon="-1.294">
        <ele>3</ele>
        <time>2023-10-30T15:54:49Z</time>
      </trkpt>
      <trkpt lat="46.322" lon="-1.2934">
        <ele>3</ele>
        <time>2023-10-30T15:56:45Z</time>
      </trkpt>
      <trkpt lat="46.3204" lon="-1.29242">
        <ele>4</ele>
        <time>2023-10-30T16:00:37Z</time>
      </trkpt>
      <trkpt lat="46.32003" lon="-1.29205">
        <ele>5</ele>
        <time>2023-10-30T16:01:37Z</time>
      </trkpt>
      <trkpt lat="46.31981" lon="-1.29218">
        <ele>4</ele>
        <time>2023-10-30T16:02:09Z</time>
      </trkpt>
      <trkpt lat="46.31938" lon="-1.29184">
        <ele>3</ele>
        <time>2023-10-30T16:03:14Z</time>
      </trkpt>
      <trkpt lat="46.31558" lon="-1.28658">
        <ele>3</ele>
        <time>2023-10-30T16:14:56Z</time>
      </trkpt>
      <trkpt lat="46.31532" lon="-1.28632">
        <ele>3</ele>
        <time>2023-10-30T16:15:38Z</time>
      </trkpt>
      <trkpt lat="46.31453" lon="-1.28525">
        <ele>3</ele>
        <time>2023-10-30T16:18:02Z</time>
      </trkpt>
      <trkpt lat="46.3142" lon="-1.28523">
        <ele>3</ele>
        <time>2023-10-30T16:18:47Z</time>
      </trkpt>
      <trkpt lat="46.31391" lon="-1.28497">
        <ele>3</ele>
        <time>2023-10-30T16:19:32Z</time>
      </trkpt>
      <trkpt lat="46.31366" lon="-1.2849">
        <ele>3</ele>
        <time>2023-10-30T16:20:06Z</time>
      </trkpt>
      <trkpt lat="46.3129" lon="-1.28441">
        <ele>2</ele>
        <time>2023-10-30T16:21:57Z</time>
      </trkpt>
      <trkpt lat="46.31274" lon="-1.28458">
        <ele>2</ele>
        <time>2023-10-30T16:22:24Z</time>
      </trkpt>
      <trkpt lat="46.312" lon="-1.28445">
        <ele>2</ele>
        <time>2023-10-30T16:24:03Z</time>
      </trkpt>
      <trkpt lat="46.31232" lon="-1.28596">
        <ele>1</ele>
        <time>2023-10-30T16:26:29Z</time>
      </trkpt>
      <trkpt lat="46.3122" lon="-1.28628">
        <ele>1</ele>
        <time>2023-10-30T16:27:02Z</time>
      </trkpt>
      <trkpt lat="46.31182" lon="-1.28555">
        <ele>1</ele>
        <time>2023-10-30T16:28:26Z</time>
      </trkpt>
      <trkpt lat="46.31171" lon="-1.28467">
        <ele>2</ele>
        <time>2023-10-30T16:29:49Z</time>
      </trkpt>
      <trkpt lat="46.31149" lon="-1.28398">
        <ele>2</ele>
        <time>2023-10-30T16:30:59Z</time>
      </trkpt>
      <trkpt lat="46.31133" lon="-1.28332">
        <ele>2</ele>
        <time>2023-10-30T16:32:03Z</time>
      </trkpt>
      <trkpt lat="46.31054" lon="-1.28192">
        <ele>3</ele>
        <time>2023-10-30T16:34:50Z</time>
      </trkpt>
      <trkpt lat="46.31034" lon="-1.28119">
        <ele>3</ele>
        <time>2023-10-30T16:36:02Z</time>
      </trkpt>
      <trkpt lat="46.30986" lon="-1.28035">
        <ele>2</ele>
        <time>2023-10-30T16:37:43Z</time>
      </trkpt>
      <trkpt lat="46.30949" lon="-1.2798">
        <ele>1</ele>
        <time>2023-10-30T16:38:54Z</time>
      </trkpt>
      <trkpt lat="46.30799" lon="-1.27611">
        <ele>2</ele>
        <time>2023-10-30T16:45:28Z</time>
      </trkpt>
      <trkpt lat="46.30617" lon="-1.27493">
        <ele>1</ele>
        <time>2023-10-30T16:49:54Z</time>
      </trkpt>
      <trkpt lat="46.29754" lon="-1.26049">
        <ele>1</ele>
        <time>2023-10-30T17:19:15Z</time>
      </trkpt>
      <trkpt lat="46.29765" lon="-1.25821">
        <ele>2.9</ele>
        <time>2023-10-30T17:22:45Z</time>
      </trkpt>
      <trkpt lat="46.29788" lon="-1.25802">
        <ele>3.5</ele>
        <time>2023-10-30T17:23:21Z</time>
      </trkpt>
      <trkpt lat="46.29877" lon="-1.25778">
        <ele>2.4</ele>
        <time>2023-10-30T17:25:22Z</time>
      </trkpt>
      <trkpt lat="46.30301" lon="-1.25446">
        <ele>4</ele>
        <time>2023-10-30T17:36:05Z</time>
      </trkpt>
      <trkpt lat="46.3034" lon="-1.2548">
        <ele>3</ele>
        <time>2023-10-30T17:37:06Z</time>
      </trkpt>
      <trkpt lat="46.30376" lon="-1.25465">
        <ele>3</ele>
        <time>2023-10-30T17:37:56Z</time>
      </trkpt>
      <trkpt lat="46.30423" lon="-1.25418">
        <ele>4</ele>
        <time>2023-10-30T17:39:12Z</time>
      </trkpt>
      <trkpt lat="46.30439" lon="-1.25364">
        <ele>4</ele>
        <time>2023-10-30T17:40:06Z</time>
      </trkpt>
      <trkpt lat="46.30411" lon="-1.25291">
        <ele>6</ele>
        <time>2023-10-30T17:41:23Z</time>
      </trkpt>
      <trkpt lat="46.30414" lon="-1.25244">
        <ele>5</ele>
        <time>2023-10-30T17:42:07Z</time>
      </trkpt>
      <trkpt lat="46.30496" lon="-1.24941">
        <ele>5</ele>
        <time>2023-10-30T17:47:07Z</time>
      </trkpt>
      <trkpt lat="46.30509" lon="-1.24637">
        <ele>5</ele>
        <time>2023-10-30T17:51:47Z</time>
      </trkpt>
      <trkpt lat="46.30583" lon="-1.24319">
        <ele>5</ele>
        <time>2023-10-30T17:56:57Z</time>
      </trkpt>
      <trkpt lat="46.30577" lon="-1.24008">
        <ele>2</ele>
        <time>2023-10-30T18:01:43Z</time>
      </trkpt>
      <trkpt lat="46.30608" lon="-1.23832">
        <ele>1</ele>
        <time>2023-10-30T18:04:31Z</time>
      </trkpt>
      <trkpt lat="46.30668" lon="-1.23841">
        <ele>1.7</ele>
        <time>2023-10-30T18:05:51Z</time>
      </trkpt>
      <trkpt lat="46.30749" lon="-1.2392">
        <ele>-1</ele>
        <time>2023-10-30T18:08:02Z</time>
      </trkpt>
      <trkpt lat="46.30838" lon="-1.24025">
        <ele>-1</ele>
        <time>2023-10-30T18:10:35Z</time>
      </trkpt>
      <trkpt lat="46.30976" lon="-1.24317">
        <ele>1</ele>
        <time>2023-10-30T18:16:01Z</time>
      </trkpt>
      <trkpt lat="46.31546" lon="-1.24474">
        <ele>1</ele>
        <time>2023-10-30T18:28:55Z</time>
      </trkpt>
      <trkpt lat="46.3261" lon="-1.24583">
        <ele>2</ele>
        <time>2023-10-30T18:52:39Z</time>
      </trkpt>
      <trkpt lat="46.32867" lon="-1.24321">
        <ele>1</ele>
        <time>2023-10-30T18:59:38Z</time>
      </trkpt>
      <trkpt lat="46.32917" lon="-1.24227">
        <ele>2</ele>
        <time>2023-10-30T19:01:28Z</time>
      </trkpt>
      <trkpt lat="46.32969" lon="-1.24274">
        <ele>2</ele>
        <time>2023-10-30T19:02:49Z</time>
      </trkpt>
      <trkpt lat="46.34406" lon="-1.24783">
        <ele>2</ele>
        <time>2023-10-30T19:35:43Z</time>
      </trkpt>
      <trkpt lat="46.34516" lon="-1.24801">
        <ele>2</ele>
        <time>2023-10-30T19:38:11Z</time>
      </trkpt>
      <trkpt lat="46.35088" lon="-1.24756">
        <ele>4</ele>
        <time>2023-10-30T19:50:56Z</time>
      </trkpt>
      <trkpt lat="46.35271" lon="-1.24984">
        <ele>8</ele>
        <time>2023-10-30T19:56:18Z</time>
      </trkpt>
      <trkpt lat="46.35014" lon="-1.25338">
        <ele>5</ele>
        <time>2023-10-30T20:04:11Z</time>
      </trkpt>
      <trkpt lat="46.35307" lon="-1.25517">
        <ele>14</ele>
        <time>2023-10-30T20:11:15Z</time>
      </trkpt>
      <trkpt lat="46.35275" lon="-1.2567">
        <ele>15</ele>
        <time>2023-10-30T20:13:43Z</time>
      </trkpt>
      <trkpt lat="46.35426" lon="-1.25971">
        <ele>4</ele>
        <time>2023-10-30T20:19:25Z</time>
      </trkpt>
      <trkpt lat="46.3538" lon="-1.26068">
        <ele>3</ele>
        <time>2023-10-30T20:21:14Z</time>
      </trkpt>
      <trkpt lat="46.35993" lon="-1.27686">
        <ele>-1</ele>
        <time>2023-10-30T20:49:34Z</time>
      </trkpt>
      <trkpt lat="46.36377" lon="-1.27354">
        <ele>1</ele>
        <time>2023-10-30T20:59:30Z</time>
      </trkpt>
      <trkpt lat="46.36377" lon="-1.27257">
        <ele>1</ele>
        <time>2023-10-30T21:01:00Z</time>
      </trkpt>
      <trkpt lat="46.36159" lon="-1.27038">
        <ele>1</ele>
        <time>2023-10-30T21:06:54Z</time>
      </trkpt>
      <trkpt lat="46.36088" lon="-1.26594">
        <ele>-1</ele>
        <time>2023-10-30T21:13:53Z</time>
      </trkpt>
      <trkpt lat="46.35962" lon="-1.26436">
        <ele>1</ele>
        <time>2023-10-30T21:17:36Z</time>
      </trkpt>
      <trkpt lat="46.35877" lon="-1.26038">
        <ele>2</ele>
        <time>2023-10-30T21:23:59Z</time>
      </trkpt>
      <trkpt lat="46.357" lon="-1.25626">
        <ele>5</ele>
        <time>2023-10-30T21:31:26Z</time>
      </trkpt>
      <trkpt lat="46.35753" lon="-1.25497">
        <ele>8</ele>
        <time>2023-10-30T21:33:45Z</time>
      </trkpt>
    </trkseg>
  </trk>
</gpx>